createdAt,value
2022-12-05T00:03:31.034Z,96.65
2022-12-05T00:13:35.339Z,96.84
2022-12-05T00:23:38.283Z,97.87
2022-12-05T00:33:42.605Z,98.08
2022-12-05T00:43:46.610Z,97.87
2022-12-05T00:53:51.607Z,97.33
2022-12-05T01:03:55.318Z,97.75
2022-12-05T01:13:59.888Z,97.67
2022-12-05T01:24:02.793Z,97.45
2022-12-05T01:34:14.041Z,97.46
2022-12-05T01:44:54.031Z,97.97
2022-12-05T01:55:02.603Z,97.75
2022-12-05T02:05:08.726Z,97.30
2022-12-05T02:15:26.479Z,97.43
2022-12-05T02:26:01.948Z,98.40
2022-12-05T02:36:10.817Z,98.27
2022-12-05T02:46:18.243Z,98.01
2022-12-05T02:56:23.222Z,98.69
2022-12-05T03:06:28.390Z,98.97
2022-12-05T03:16:36.392Z,99.66
2022-12-05T03:26:49.587Z,99.58
2022-12-05T03:36:55.518Z,99.71
2022-12-05T03:47:03.569Z,100.00
2022-12-05T03:57:13.381Z,100.00
2022-12-05T04:07:19.444Z,100.00
2022-12-05T04:17:31.483Z,100.00
2022-12-05T04:27:42.493Z,100.00
2022-12-05T04:37:51.541Z,100.00
2022-12-05T04:47:58.740Z,100.00
2022-12-05T04:58:08.803Z,100.00
2022-12-05T05:08:19.145Z,100.00
2022-12-05T05:18:23.531Z,100.00
2022-12-05T05:28:26.467Z,100.00
2022-12-05T05:38:30.782Z,100.00
2022-12-05T05:48:33.753Z,100.00
2022-12-05T05:58:38.376Z,100.00
2022-12-05T06:08:43.951Z,100.00
2022-12-05T06:18:49.286Z,100.00
2022-12-05T06:28:53.499Z,100.00
2022-12-05T06:38:59.013Z,100.00
2022-12-05T06:49:02.768Z,100.00
2022-12-05T06:59:07.770Z,100.00
2022-12-05T07:09:13.673Z,100.00
2022-12-05T07:19:18.010Z,100.00
2022-12-05T07:29:21.003Z,100.00
2022-12-05T07:39:25.301Z,100.00
2022-12-05T07:49:28.412Z,100.00
2022-12-05T07:59:32.732Z,100.00
2022-12-05T08:09:35.628Z,100.00
2022-12-05T08:19:40.305Z,100.00
2022-12-05T08:29:43.296Z,100.00
2022-12-05T08:39:47.570Z,100.00
2022-12-05T08:49:50.542Z,100.00
2022-12-05T08:59:54.839Z,100.00
2022-12-05T09:09:57.805Z,100.00
2022-12-05T09:20:02.385Z,100.00
2022-12-05T09:30:06.311Z,100.00
2022-12-05T09:40:18.013Z,100.00
2022-12-05T09:50:23.380Z,100.00
2022-12-05T10:00:30.559Z,100.00
2022-12-05T10:10:43.015Z,100.00
2022-12-05T10:20:51.312Z,100.00
2022-12-05T10:31:00.165Z,100.00
2022-12-05T10:41:08.028Z,100.00
2022-12-05T10:51:15.943Z,100.00
2022-12-05T11:01:20.515Z,100.00
2022-12-05T11:11:28.493Z,100.00
2022-12-05T11:21:43.641Z,100.00
2022-12-05T11:31:52.137Z,100.00
2022-12-05T11:42:20.871Z,100.00
2022-12-05T11:52:38.908Z,98.26
2022-12-05T12:03:11.622Z,99.36
2022-12-05T12:13:29.331Z,99.04
2022-12-05T12:23:46.524Z,98.67
2022-12-05T12:33:58.928Z,98.00
2022-12-05T12:44:18.376Z,98.96
2022-12-05T12:55:02.307Z,99.06
2022-12-05T13:05:05.829Z,99.11
2022-12-05T13:15:15.546Z,99.57
2022-12-05T13:25:26.141Z,99.97
2022-12-05T13:35:50.479Z,100.00
2022-12-05T13:46:04.604Z,100.00
2022-12-05T13:56:27.321Z,100.00
2022-12-05T14:06:59.445Z,100.00
2022-12-05T14:17:03.975Z,100.00
2022-12-05T14:27:14.909Z,100.00
2022-12-05T14:37:28.430Z,100.00
2022-12-05T14:47:35.296Z,100.00
2022-12-05T14:57:48.413Z,100.00
2022-12-05T15:07:55.785Z,100.00
2022-12-05T15:18:05.017Z,100.00
2022-12-05T15:28:20.678Z,100.00
2022-12-05T15:38:28.033Z,100.00
2022-12-05T15:48:32.467Z,100.00
2022-12-05T15:58:41.367Z,100.00
2022-12-05T16:08:46.882Z,100.00
2022-12-05T16:18:51.901Z,100.00
2022-12-05T16:28:59.764Z,100.00
2022-12-05T16:39:05.869Z,100.00
2022-12-05T16:49:44.360Z,100.00
2022-12-05T16:59:49.829Z,100.00
2022-12-05T17:09:54.111Z,100.00
2022-12-05T17:19:57.139Z,100.00
2022-12-05T17:30:01.644Z,100.00
2022-12-05T17:40:05.210Z,100.00
2022-12-05T17:50:15.453Z,100.00
2022-12-05T18:00:20.146Z,100.00
2022-12-05T18:10:24.922Z,100.00
2022-12-05T18:20:27.821Z,100.00
2022-12-05T18:30:32.170Z,100.00
2022-12-05T18:40:35.118Z,100.00
2022-12-05T18:50:39.471Z,100.00
2022-12-05T19:00:42.544Z,100.00
2022-12-05T19:10:46.953Z,100.00
2022-12-05T19:20:52.290Z,100.00
2022-12-05T19:31:02.071Z,100.00
2022-12-05T19:41:06.290Z,100.00
2022-12-05T19:51:10.652Z,100.00
2022-12-05T20:01:16.219Z,100.00
2022-12-05T20:11:22.287Z,100.00
2022-12-05T20:21:26.774Z,100.00
2022-12-05T20:31:32.985Z,100.00
2022-12-05T20:41:36.315Z,100.00
2022-12-05T20:51:43.493Z,100.00
2022-12-05T21:01:47.593Z,100.00
2022-12-05T21:11:52.290Z,100.00
2022-12-05T21:21:56.034Z,100.00
2022-12-05T21:32:00.965Z,100.00
2022-12-05T21:42:03.964Z,100.00
2022-12-05T21:52:08.274Z,100.00
2022-12-05T22:02:11.730Z,100.00
2022-12-05T22:12:16.067Z,100.00
2022-12-05T22:22:18.959Z,100.00
2022-12-05T22:32:23.289Z,100.00
2022-12-05T22:42:27.480Z,100.00
2022-12-05T22:52:31.779Z,100.00
2022-12-05T23:02:35.089Z,100.00
2022-12-05T23:12:39.903Z,100.00
2022-12-05T23:22:43.130Z,100.00
2022-12-05T23:32:47.824Z,100.00
2022-12-05T23:42:51.069Z,100.00
2022-12-05T23:52:55.700Z,100.00
